createdAt,value
2023-03-22T00:23:42.197Z,200.24
2023-03-22T00:30:15.503Z,202.33
2023-03-22T00:41:23.694Z,221.60
2023-03-22T00:42:23.600Z,206.93
2023-03-22T00:43:23.619Z,200.48
2023-03-22T00:44:23.941Z,196.05
2023-03-22T00:45:23.976Z,193.16
2023-03-22T00:46:23.670Z,190.36
2023-03-22T00:47:23.684Z,188.94
2023-03-22T00:48:23.740Z,189.04
2023-03-22T00:49:23.715Z,187.96
2023-03-22T00:50:23.542Z,187.43
2023-03-22T00:51:23.653Z,188.07
2023-03-22T00:52:23.848Z,187.10
2023-03-22T00:53:23.937Z,187.43
2023-03-22T00:54:23.816Z,187.96
2023-03-22T00:55:23.907Z,188.07
2023-03-22T00:56:23.836Z,188.18
2023-03-22T00:57:23.493Z,188.50
2023-03-22T00:58:23.723Z,189.04
2023-03-22T00:59:24.454Z,189.81
2023-03-22T01:00:23.744Z,187.75
2023-03-22T01:01:23.554Z,189.37
2023-03-22T01:02:23.607Z,190.14
2023-03-22T01:03:23.614Z,190.25
2023-03-22T01:04:23.484Z,190.80
2023-03-22T01:05:23.467Z,189.92
2023-03-22T01:06:23.357Z,191.36
2023-03-22T01:07:23.423Z,189.92
2023-03-22T01:08:23.408Z,192.03
2023-03-22T01:09:23.627Z,191.58
2023-03-22T01:10:23.294Z,192.71
2023-03-22T01:11:23.475Z,191.81
2023-03-22T01:12:23.731Z,192.71
2023-03-22T01:13:23.517Z,192.71
2023-03-22T01:14:23.312Z,193.96
2023-03-22T01:15:23.295Z,193.96
2023-03-22T01:16:23.910Z,193.05
2023-03-22T01:17:23.543Z,194.42
2023-03-22T01:18:23.966Z,193.85
2023-03-22T01:19:23.712Z,193.96
2023-03-22T01:20:23.313Z,193.73
2023-03-22T01:21:23.264Z,194.31
2023-03-22T01:22:23.188Z,193.96
2023-03-22T01:23:23.694Z,194.88
2023-03-22T01:24:24.123Z,194.19
2023-03-22T01:25:23.573Z,194.08
2023-03-22T01:26:23.140Z,193.73
2023-03-22T01:27:23.081Z,194.42
2023-03-22T01:28:25.254Z,193.85
2023-03-22T01:29:23.242Z,195.12
2023-03-22T01:30:23.136Z,195.46
2023-03-22T01:31:23.203Z,196.52
2023-03-22T01:32:23.148Z,194.42
2023-03-22T01:33:23.021Z,195.35
2023-03-22T01:34:23.099Z,194.65
2023-03-22T01:35:23.023Z,194.65
2023-03-22T01:36:22.967Z,194.88
2023-03-22T01:37:23.062Z,193.50
2023-03-22T01:38:23.027Z,195.58
2023-03-22T01:39:23.010Z,194.19
2023-03-22T01:40:22.995Z,196.52
2023-03-22T01:41:22.956Z,195.00
2023-03-22T01:42:23.075Z,195.35
2023-03-22T01:43:22.963Z,194.54
2023-03-22T01:44:23.043Z,194.77
2023-03-22T01:45:22.944Z,195.23
2023-03-22T01:46:23.012Z,194.42
2023-03-22T01:47:23.151Z,194.42
2023-03-22T01:48:23.109Z,195.93
2023-03-22T01:49:22.944Z,194.65
2023-03-22T01:50:23.025Z,195.46
2023-03-22T01:51:22.906Z,195.35
2023-03-22T01:52:22.794Z,195.35
2023-03-22T01:53:22.826Z,195.12
2023-03-22T01:54:22.809Z,196.40
2023-03-22T01:55:22.880Z,196.28
2023-03-22T01:56:22.798Z,197.11
2023-03-22T01:57:22.951Z,196.99
2023-03-22T01:58:22.828Z,196.87
2023-03-22T01:59:22.742Z,197.11
2023-03-22T02:00:22.893Z,197.23
2023-03-22T02:01:22.954Z,196.52
2023-03-22T02:02:22.812Z,197.35
2023-03-22T02:03:22.705Z,196.05
2023-03-22T02:04:22.833Z,197.82
2023-03-22T02:05:22.773Z,197.70
2023-03-22T02:06:22.772Z,197.70
2023-03-22T02:07:22.743Z,198.54
2023-03-22T02:08:22.743Z,196.52
2023-03-22T02:09:22.890Z,196.28
2023-03-22T02:10:22.610Z,198.30
2023-03-22T02:11:22.654Z,199.14
2023-03-22T02:12:22.714Z,197.46
2023-03-22T02:13:22.574Z,199.63
2023-03-22T02:14:23.471Z,199.14
2023-03-22T02:15:22.704Z,198.30
2023-03-22T02:16:22.601Z,198.90
2023-03-22T02:17:22.718Z,198.06
2023-03-22T02:18:22.606Z,197.82
2023-03-22T02:19:22.886Z,198.42
2023-03-22T02:20:22.591Z,198.90
2023-03-22T02:21:22.569Z,198.78
2023-03-22T02:22:22.519Z,198.90
2023-03-22T02:23:22.861Z,196.99
2023-03-22T02:24:22.857Z,198.06
2023-03-22T02:25:23.101Z,197.82
2023-03-22T02:26:22.660Z,198.18
2023-03-22T02:27:22.808Z,198.30
2023-03-22T02:28:22.844Z,197.94
2023-03-22T02:29:22.502Z,197.58
2023-03-22T02:30:22.883Z,198.42
2023-03-22T02:31:22.598Z,197.94
2023-03-22T02:32:22.868Z,197.35
2023-03-22T02:33:22.711Z,197.46
2023-03-22T02:34:22.680Z,197.11
2023-03-22T02:35:22.997Z,197.35
2023-03-22T02:36:22.744Z,197.94
2023-03-22T02:37:22.610Z,197.46
2023-03-22T02:38:22.613Z,197.46
2023-03-22T02:39:22.484Z,195.93
2023-03-22T02:40:22.526Z,196.05
2023-03-22T02:41:22.424Z,195.81
2023-03-22T02:42:22.474Z,196.99
2023-03-22T02:43:22.669Z,197.70
2023-03-22T02:44:22.747Z,196.75
2023-03-22T02:45:22.465Z,196.87
2023-03-22T02:46:22.566Z,196.99
2023-03-22T02:47:22.605Z,198.66
2023-03-22T02:48:22.565Z,198.54
2023-03-22T02:49:22.508Z,197.58
2023-03-22T02:50:22.451Z,197.94
2023-03-22T02:51:22.354Z,199.50
2023-03-22T02:52:22.374Z,196.87
2023-03-22T02:53:22.403Z,198.42
2023-03-22T02:54:23.324Z,197.58
2023-03-22T02:55:22.301Z,197.58
2023-03-22T02:56:22.291Z,197.23
2023-03-22T02:57:22.218Z,197.82
2023-03-22T02:58:22.335Z,198.18
2023-03-22T02:59:22.305Z,197.46
2023-03-22T03:00:22.463Z,198.06
2023-03-22T03:01:22.471Z,196.40
2023-03-22T03:02:22.378Z,196.99
2023-03-22T03:03:22.237Z,195.46
2023-03-22T03:04:22.555Z,194.88
2023-03-22T03:05:22.436Z,195.58
2023-03-22T03:06:22.166Z,194.31
2023-03-22T03:07:22.456Z,194.31
2023-03-22T03:08:22.263Z,193.73
2023-03-22T03:09:22.090Z,194.54
2023-03-22T03:10:22.165Z,193.85
2023-03-22T03:11:22.272Z,193.39
2023-03-22T03:12:22.415Z,194.31
2023-03-22T03:13:22.317Z,193.05
2023-03-22T03:14:22.089Z,193.62
2023-03-22T03:15:43.283Z,194.08
2023-03-22T03:16:22.129Z,195.12
2023-03-22T03:17:22.231Z,195.12
2023-03-22T03:18:22.192Z,196.28
2023-03-22T03:19:22.152Z,195.35
2023-03-22T03:20:21.960Z,194.31
2023-03-22T03:21:22.087Z,197.11
2023-03-22T03:22:22.002Z,196.99
2023-03-22T03:23:21.961Z,195.23
2023-03-22T03:24:21.853Z,195.46
2023-03-22T03:25:22.029Z,195.58
2023-03-22T03:26:21.972Z,195.81
2023-03-22T03:27:21.925Z,196.05
2023-03-22T03:28:23.646Z,195.81
2023-03-22T03:29:21.774Z,194.65
2023-03-22T03:30:21.903Z,194.42
2023-03-22T03:31:21.930Z,194.88
2023-03-22T03:32:21.876Z,193.28
2023-03-22T03:33:21.912Z,193.96
2023-03-22T03:34:22.045Z,193.50
2023-03-22T03:35:21.873Z,193.50
2023-03-22T03:36:21.844Z,194.19
2023-03-22T03:37:22.031Z,193.28
2023-03-22T03:38:21.849Z,193.73
2023-03-22T03:39:21.770Z,193.73
2023-03-22T03:40:21.750Z,193.85
2023-03-22T03:41:21.809Z,194.65
2023-03-22T03:42:21.725Z,193.85
2023-03-22T03:43:21.736Z,193.85
2023-03-22T03:44:21.709Z,193.28
2023-03-22T03:45:21.674Z,193.39
2023-03-22T03:46:21.811Z,193.85
2023-03-22T03:47:21.601Z,194.19
2023-03-22T03:48:21.809Z,194.31
2023-03-22T03:49:21.648Z,193.96
2023-03-22T03:50:21.642Z,192.60
2023-03-22T03:51:21.661Z,193.85
2023-03-22T03:52:21.646Z,193.39
2023-03-22T03:53:21.520Z,193.50
2023-03-22T03:54:21.665Z,194.19
2023-03-22T03:55:21.550Z,193.16
2023-03-22T03:56:21.747Z,193.39
2023-03-22T03:57:21.582Z,192.03
2023-03-22T03:58:21.605Z,193.85
2023-03-22T03:59:21.655Z,194.65
2023-03-22T04:00:21.427Z,195.46
2023-03-22T04:01:21.624Z,194.88
2023-03-22T04:02:21.433Z,195.23
2023-03-22T04:03:21.390Z,194.65
2023-03-22T04:04:21.481Z,196.40
2023-03-22T04:05:21.472Z,194.08
2023-03-22T04:06:21.410Z,193.96
2023-03-22T04:07:21.461Z,194.31
2023-03-22T04:08:21.351Z,194.88
2023-03-22T04:09:21.457Z,195.81
2023-03-22T04:10:21.402Z,194.31
2023-03-22T04:11:21.319Z,196.16
2023-03-22T04:12:21.272Z,196.28
2023-03-22T04:13:21.507Z,196.16
2023-03-22T04:14:21.417Z,195.00
2023-03-22T04:15:21.500Z,196.40
2023-03-22T04:16:21.489Z,198.18
2023-03-22T04:17:21.434Z,197.46
2023-03-22T04:18:21.606Z,197.35
2023-03-22T04:19:21.478Z,197.23
2023-03-22T04:20:21.254Z,198.18
2023-03-22T04:21:21.382Z,198.06
2023-03-22T04:22:21.389Z,198.66
2023-03-22T04:23:21.261Z,198.30
2023-03-22T04:24:21.685Z,199.63
2023-03-22T04:25:21.189Z,200.24
2023-03-22T04:26:21.295Z,201.09
2023-03-22T04:27:21.380Z,199.87
2023-03-22T04:28:21.165Z,200.11
2023-03-22T04:29:21.185Z,199.26
2023-03-22T04:30:21.104Z,201.34
2023-03-22T04:31:21.227Z,200.73
2023-03-22T04:32:21.311Z,202.46
2023-03-22T04:33:21.336Z,202.96
2023-03-22T04:34:21.871Z,203.34
2023-03-22T04:36:38.945Z,241.32
2023-03-22T04:37:38.896Z,229.35
2023-03-22T04:38:38.884Z,224.64
2023-03-22T04:39:38.890Z,220.41
2023-03-22T04:40:39.322Z,218.36
2023-03-22T04:41:38.857Z,217.63
2023-03-22T04:42:38.834Z,215.49
2023-03-22T04:43:38.817Z,213.94
2023-03-22T04:44:38.931Z,214.36
2023-03-22T04:45:38.847Z,214.08
2023-03-22T04:46:38.939Z,213.39
2023-03-22T04:47:38.793Z,212.70
2023-03-22T04:48:38.773Z,211.60
2023-03-22T04:49:38.785Z,211.46
2023-03-22T04:50:38.978Z,212.56
2023-03-22T04:51:38.744Z,211.46
2023-03-22T04:52:38.734Z,210.51
2023-03-22T04:53:38.715Z,209.84
2023-03-22T04:54:38.707Z,210.92
2023-03-22T04:55:38.707Z,210.38
2023-03-22T04:56:38.708Z,211.60
2023-03-22T04:57:38.690Z,211.05
2023-03-22T04:58:38.675Z,210.92
2023-03-22T04:59:38.666Z,211.74
2023-03-22T05:00:39.091Z,211.33
2023-03-22T05:01:38.677Z,211.87
2023-03-22T05:02:40.778Z,213.11
2023-03-22T05:03:38.612Z,212.28
2023-03-22T05:04:38.624Z,212.28
2023-03-22T05:05:38.593Z,213.66
2023-03-22T05:06:38.574Z,213.80
2023-03-22T05:07:38.572Z,213.53
2023-03-22T05:08:38.648Z,212.83
2023-03-22T05:09:38.556Z,213.39
2023-03-22T05:10:38.864Z,213.94
2023-03-22T05:11:38.567Z,212.15
2023-03-22T05:12:38.519Z,212.15
2023-03-22T05:13:38.506Z,211.74
2023-03-22T05:14:38.588Z,210.38
2023-03-22T05:15:38.538Z,209.71
2023-03-22T05:16:38.762Z,210.38
2023-03-22T05:17:38.512Z,209.44
2023-03-22T05:18:38.502Z,209.57
2023-03-22T05:19:38.450Z,209.44
2023-03-22T05:20:38.869Z,210.38
2023-03-22T05:21:38.461Z,210.11
2023-03-22T05:22:38.436Z,209.44
2023-03-22T05:23:38.393Z,208.51
2023-03-22T05:24:38.374Z,208.11
2023-03-22T05:25:38.387Z,207.71
2023-03-22T05:26:38.347Z,208.64
2023-03-22T05:27:38.361Z,207.19
2023-03-22T05:28:38.345Z,206.54
2023-03-22T05:29:38.335Z,206.02
2023-03-22T05:30:41.688Z,205.76
2023-03-22T05:33:05.705Z,240.26
2023-03-22T05:34:04.434Z,229.19
2023-03-22T05:38:11.534Z,251.88
2023-03-22T05:40:40.044Z,262.36
2023-03-22T05:46:39.503Z,271.47
2023-03-22T05:47:38.924Z,255.01
2023-03-22T05:48:38.761Z,245.66
2023-03-22T05:49:38.700Z,240.44
2023-03-22T05:50:38.984Z,236.79
2023-03-22T05:51:38.701Z,232.76
2023-03-22T05:52:38.721Z,230.48
2023-03-22T05:53:38.678Z,227.76
2023-03-22T05:54:38.664Z,226.03
2023-03-22T05:55:38.661Z,225.10
2023-03-22T05:56:38.641Z,223.57
2023-03-22T05:57:38.680Z,222.96
2023-03-22T05:58:38.620Z,222.05
2023-03-22T05:59:38.604Z,219.23
2023-03-22T06:00:38.954Z,220.26
2023-03-22T06:01:38.627Z,217.92
2023-03-22T06:02:38.566Z,218.07
2023-03-22T06:03:38.618Z,216.91
2023-03-22T06:04:38.542Z,216.49
2023-03-22T06:05:38.550Z,215.35
2023-03-22T06:06:38.589Z,214.64
2023-03-22T06:07:38.540Z,213.53
2023-03-22T06:08:38.590Z,212.01
2023-03-22T06:09:38.501Z,212.28
2023-03-22T06:10:39.006Z,211.87
2023-03-22T06:11:38.522Z,211.87
2023-03-22T06:12:38.567Z,212.56
2023-03-22T06:13:38.464Z,210.65
2023-03-22T06:14:38.470Z,211.74
2023-03-22T06:15:38.484Z,211.33
2023-03-22T06:16:38.541Z,211.46
2023-03-22T06:17:38.472Z,209.57
2023-03-22T06:18:38.469Z,211.05
2023-03-22T06:19:38.431Z,210.24
2023-03-22T06:20:38.701Z,211.87
2023-03-22T06:21:38.409Z,210.24
2023-03-22T06:22:38.396Z,208.64
2023-03-22T06:23:38.374Z,209.57
2023-03-22T06:24:38.424Z,207.71
2023-03-22T06:25:38.368Z,209.57
2023-03-22T06:26:38.376Z,209.17
2023-03-22T06:27:38.420Z,209.17
2023-03-22T06:28:38.397Z,207.45
2023-03-22T06:29:38.306Z,205.89
2023-03-22T06:30:38.697Z,205.37
2023-03-22T06:31:38.291Z,204.48
2023-03-22T06:32:38.287Z,202.96
2023-03-22T06:33:38.271Z,203.84
2023-03-22T06:34:38.231Z,201.96
2023-03-22T06:35:38.306Z,201.96
2023-03-22T06:36:38.200Z,201.46
2023-03-22T06:37:38.215Z,200.60
2023-03-22T06:38:38.224Z,201.71
2023-03-22T06:39:38.175Z,200.73
2023-03-22T06:40:38.576Z,202.09
2023-03-22T06:41:38.197Z,200.48
2023-03-22T06:42:38.357Z,201.46
2023-03-22T06:43:38.184Z,199.63
2023-03-22T06:44:38.162Z,200.97
2023-03-22T06:45:38.121Z,198.90
2023-03-22T06:46:38.097Z,199.26
2023-03-22T06:47:38.104Z,199.26
2023-03-22T06:48:38.106Z,200.97
2023-03-22T06:49:38.132Z,198.90
2023-03-22T06:50:38.557Z,199.14
2023-03-22T06:51:38.031Z,198.78
2023-03-22T06:52:38.035Z,198.54
2023-03-22T06:53:38.040Z,198.90
2023-03-22T06:54:38.062Z,200.60
2023-03-22T06:55:38.096Z,199.87
2023-03-22T06:56:38.083Z,200.60
2023-03-22T06:57:38.045Z,199.38
2023-03-22T06:58:38.086Z,199.99
2023-03-22T06:59:37.980Z,199.75
2023-03-22T07:00:38.269Z,199.75
2023-03-22T07:01:38.046Z,199.75
2023-03-22T07:02:38.038Z,198.42
2023-03-22T07:03:37.959Z,197.35
2023-03-22T07:04:37.935Z,197.82
2023-03-22T07:05:37.891Z,197.94
2023-03-22T07:06:38.002Z,198.78
2023-03-22T07:07:37.881Z,198.78
2023-03-22T07:08:37.879Z,198.30
2023-03-22T07:09:37.853Z,196.05
2023-03-22T07:10:38.397Z,194.54
2023-03-22T07:11:37.833Z,194.88
2023-03-22T07:12:37.834Z,193.28
2023-03-22T07:13:37.796Z,193.73
2023-03-22T07:14:37.809Z,193.16
2023-03-22T07:15:37.793Z,193.05
2023-03-22T07:16:37.794Z,192.37
2023-03-22T07:17:37.769Z,191.14
2023-03-22T07:18:37.787Z,190.36
2023-03-22T07:19:37.743Z,189.92
2023-03-22T07:20:37.847Z,188.72
2023-03-22T07:21:37.732Z,187.53
2023-03-22T07:22:37.747Z,186.78
2023-03-22T07:23:37.718Z,186.04
2023-03-22T07:24:44.761Z,187.00
2023-03-22T07:25:38.705Z,187.21
2023-03-22T07:26:37.692Z,187.64
2023-03-22T07:27:37.672Z,187.64
2023-03-22T07:28:37.720Z,185.73
2023-03-22T07:29:37.738Z,186.47
2023-03-22T07:30:38.037Z,185.31
2023-03-22T07:31:37.649Z,184.79
2023-03-22T07:32:37.683Z,186.25
2023-03-22T07:33:37.626Z,186.04
2023-03-22T07:34:37.616Z,186.66
2023-03-22T07:35:37.626Z,186.04
2023-03-22T07:36:37.563Z,186.15
2023-03-22T07:37:37.656Z,186.15
2023-03-22T07:38:37.576Z,186.47
2023-03-22T07:39:37.583Z,185.83
2023-03-22T07:40:37.778Z,185.41
2023-03-22T07:41:37.517Z,184.89
2023-03-22T07:42:37.494Z,185.41
2023-03-22T07:43:52.402Z,186.04
2023-03-22T07:44:38.490Z,185.20
2023-03-22T07:45:37.453Z,185.62
2023-03-22T07:46:37.511Z,186.04
2023-03-22T07:47:43.774Z,185.20
2023-03-22T07:48:38.481Z,185.52
2023-03-22T07:49:37.453Z,186.45
2023-03-22T07:50:37.696Z,184.79
2023-03-22T07:51:37.469Z,186.66
2023-03-22T07:52:37.404Z,185.62
2023-03-22T07:53:37.415Z,185.21
2023-03-22T07:54:37.354Z,185.21
2023-03-22T07:55:37.388Z,185.62
2023-03-22T07:56:37.346Z,186.04
2023-03-22T07:57:37.339Z,186.87
2023-03-22T07:58:37.469Z,186.24
2023-03-22T07:59:39.876Z,185.62
2023-03-22T08:00:37.620Z,185.42
2023-03-22T08:01:37.288Z,183.99
2023-03-22T08:02:37.361Z,185.01
2023-03-22T08:03:37.276Z,183.58
2023-03-22T08:04:37.328Z,184.39
2023-03-22T08:05:37.297Z,183.78
2023-03-22T08:06:37.294Z,183.38
2023-03-22T08:07:37.343Z,182.98
2023-03-22T08:08:37.281Z,183.38
2023-03-22T08:09:37.231Z,183.18
2023-03-22T08:10:37.404Z,183.58
2023-03-22T08:11:37.195Z,182.78
2023-03-22T08:12:37.196Z,182.38
2023-03-22T08:13:37.218Z,183.99
2023-03-22T08:14:37.373Z,182.98
2023-03-22T08:15:37.394Z,184.39
2023-03-22T08:16:37.276Z,183.99
2023-03-22T08:17:37.146Z,184.19
2023-03-22T08:18:37.129Z,183.99
2023-03-22T08:19:37.088Z,183.99
2023-03-22T08:20:37.155Z,184.39
2023-03-22T08:21:37.109Z,184.39
2023-03-22T08:22:37.202Z,183.58
2023-03-22T08:23:41.777Z,184.19
2023-03-22T08:24:38.057Z,185.21
2023-03-22T08:25:37.099Z,185.01
2023-03-22T08:26:37.044Z,185.42
2023-03-22T08:27:37.062Z,185.21
2023-03-22T08:28:37.015Z,184.80
2023-03-22T08:29:36.976Z,184.80
2023-03-22T08:30:37.036Z,184.39
2023-03-22T08:31:36.984Z,184.60
2023-03-22T08:32:37.014Z,184.39
2023-03-22T08:33:36.985Z,184.80
2023-03-22T08:34:36.934Z,185.01
2023-03-22T08:35:36.999Z,185.42
2023-03-22T08:36:36.896Z,185.62
2023-03-22T08:37:36.910Z,184.79
2023-03-22T08:38:36.881Z,184.89
2023-03-22T08:39:36.903Z,185.62
2023-03-22T08:40:36.928Z,185.94
2023-03-22T08:41:36.930Z,186.78
2023-03-22T08:42:36.839Z,187.75
2023-03-22T08:43:36.900Z,189.04
2023-03-22T08:44:36.837Z,190.25
2023-03-22T08:45:36.850Z,191.70
2023-03-22T08:46:36.838Z,193.16
2023-03-22T08:47:36.808Z,194.65
2023-03-22T08:48:36.767Z,195.46
2023-03-22T08:49:36.789Z,196.63
2023-03-22T08:50:36.793Z,199.50
2023-03-22T08:51:36.726Z,200.60
2023-03-22T08:52:36.757Z,200.97
2023-03-22T08:53:36.725Z,202.33
2023-03-22T08:54:36.718Z,203.34
2023-03-22T08:55:36.783Z,203.09
2023-03-22T08:56:36.684Z,203.72
2023-03-22T08:57:38.754Z,205.24
2023-03-22T08:58:36.664Z,206.41
2023-03-22T08:59:36.681Z,207.19
2023-03-22T09:00:48.176Z,207.71
2023-03-22T09:01:37.769Z,208.51
2023-03-22T09:02:36.621Z,208.77
2023-03-22T09:03:36.611Z,210.38
2023-03-22T09:04:36.756Z,209.97
2023-03-22T09:05:36.578Z,213.39
2023-03-22T09:06:36.557Z,211.05
2023-03-22T09:07:36.532Z,212.56
2023-03-22T09:08:36.620Z,213.66
2023-03-22T09:09:36.531Z,215.91
2023-03-22T09:10:36.492Z,216.20
2023-03-22T09:11:36.503Z,216.49
2023-03-22T09:12:36.526Z,216.77
2023-03-22T09:13:36.644Z,218.21
2023-03-22T09:14:36.578Z,218.50
2023-03-22T09:15:36.501Z,218.07
2023-03-22T09:16:36.567Z,218.36
2023-03-22T09:17:36.456Z,219.38
2023-03-22T09:18:36.459Z,219.67
2023-03-22T09:19:36.981Z,220.71
2023-03-22T09:20:36.423Z,219.53
2023-03-22T09:21:36.500Z,218.65
2023-03-22T09:22:36.399Z,219.23
2023-03-22T09:23:36.473Z,217.63
2023-03-22T09:24:36.420Z,219.82
2023-03-22T09:25:36.368Z,219.82
2023-03-22T09:26:36.390Z,220.26
2023-03-22T09:27:36.303Z,219.82
2023-03-22T09:28:36.466Z,220.26
2023-03-22T09:29:36.326Z,218.65
2023-03-22T09:30:36.291Z,220.71
2023-03-22T09:31:36.340Z,219.97
2023-03-22T09:32:36.271Z,219.82
2023-03-22T09:33:36.295Z,220.56
2023-03-22T09:34:36.241Z,220.26
2023-03-22T09:35:36.330Z,222.65
2023-03-22T09:36:36.213Z,221.60
2023-03-22T09:37:36.212Z,223.26
2023-03-22T09:38:36.201Z,222.20
2023-03-22T09:39:36.183Z,222.35
2023-03-22T09:40:36.198Z,223.87
2023-03-22T09:41:36.197Z,222.96
2023-03-22T09:42:36.142Z,223.72
2023-03-22T09:43:36.194Z,222.81
2023-03-22T09:44:36.134Z,222.50
2023-03-22T09:45:36.124Z,222.96
2023-03-22T09:46:36.183Z,223.11
2023-03-22T09:47:44.235Z,222.96
2023-03-22T09:48:37.095Z,223.11
2023-03-22T09:49:50.534Z,222.50
2023-03-22T09:50:37.110Z,224.33
2023-03-22T09:51:36.040Z,225.25
2023-03-22T09:52:36.073Z,226.97
2023-03-22T09:53:36.039Z,225.10
2023-03-22T09:54:36.050Z,226.65
2023-03-22T09:55:36.094Z,226.34
2023-03-22T09:56:36.002Z,226.34
2023-03-22T09:57:36.030Z,227.12
2023-03-22T09:58:36.000Z,227.28
2023-03-22T09:59:35.966Z,226.03
2023-03-22T10:00:36.124Z,228.55
2023-03-22T10:01:36.215Z,228.39
2023-03-22T10:02:36.021Z,229.99
2023-03-22T10:03:43.473Z,229.83
2023-03-22T10:04:42.956Z,231.78
2023-03-22T10:05:44.592Z,233.09
2023-03-22T10:06:43.466Z,234.93
2023-03-22T10:07:42.931Z,234.09
2023-03-22T10:08:43.489Z,237.14
2023-03-22T10:09:43.357Z,238.52
2023-03-22T10:10:45.383Z,242.04
2023-03-22T10:11:45.806Z,242.39
2023-03-22T10:12:43.401Z,243.29
2023-03-22T10:13:42.930Z,243.65
2023-03-22T10:14:43.288Z,246.03
2023-03-22T10:15:44.544Z,249.20
2023-03-22T10:16:43.335Z,250.35
2023-03-22T10:17:43.403Z,251.11
2023-03-22T10:18:42.801Z,253.44
2023-03-22T10:19:42.821Z,254.82
2023-03-22T10:20:35.723Z,257.42
2023-03-22T10:21:35.802Z,258.02
2023-03-22T10:22:35.739Z,260.69
2023-03-22T10:23:35.698Z,261.31
2023-03-22T10:24:35.683Z,264.05
2023-03-22T10:25:35.696Z,265.76
2023-03-22T10:26:35.672Z,267.49
2023-03-22T10:27:35.694Z,269.91
2023-03-22T10:28:35.662Z,270.80
2023-03-22T10:29:35.637Z,275.35
2023-03-22T10:30:35.638Z,275.58
2023-03-22T10:31:35.669Z,279.09
2023-03-22T10:32:38.932Z,279.09
2023-03-22T10:33:36.691Z,280.29
2023-03-22T10:34:35.601Z,281.73
2023-03-22T10:35:35.614Z,281.97
2023-03-22T10:36:35.589Z,283.92
2023-03-22T10:37:35.602Z,284.17
2023-03-22T10:38:35.588Z,286.40
2023-03-22T10:39:36.364Z,286.40
2023-03-22T10:40:35.558Z,288.92
2023-03-22T10:41:35.517Z,289.43
2023-03-22T10:42:35.511Z,289.94
2023-03-22T10:43:35.540Z,291.49
2023-03-22T10:44:35.488Z,290.46
2023-03-22T10:45:35.479Z,290.46
2023-03-22T10:46:35.528Z,293.31
2023-03-22T10:47:35.463Z,296.23
2023-03-22T10:48:35.593Z,295.16
2023-03-22T10:49:35.540Z,297.30
2023-03-22T10:50:35.426Z,298.92
2023-03-22T10:51:35.562Z,299.20
2023-03-22T10:52:35.503Z,300.29
2023-03-22T10:53:35.400Z,303.63
2023-03-22T10:54:35.373Z,302.79
2023-03-22T10:55:35.408Z,304.47
2023-03-22T10:56:35.384Z,307.04
2023-03-22T10:57:35.363Z,307.90
2023-03-22T10:58:35.357Z,311.70
2023-03-22T10:59:35.338Z,311.11
2023-03-22T11:00:38.380Z,310.82
2023-03-22T11:01:35.492Z,315.00
2023-03-22T11:02:35.435Z,315.60
2023-03-22T11:03:35.289Z,315.30
2023-03-22T11:04:35.349Z,316.82
2023-03-22T11:05:35.259Z,315.90
2023-03-22T11:06:35.420Z,319.29
2023-03-22T11:07:35.291Z,320.85
2023-03-22T11:08:35.257Z,322.42
2023-03-22T11:09:35.247Z,323.70
2023-03-22T11:10:35.372Z,321.48
2023-03-22T11:11:35.339Z,325.30
2023-03-22T11:12:35.282Z,326.27
2023-03-22T11:13:35.192Z,328.89
2023-03-22T11:14:35.189Z,329.55
2023-03-22T11:15:35.183Z,330.55
2023-03-22T11:16:35.206Z,333.23
2023-03-22T11:17:35.167Z,334.25
2023-03-22T11:18:35.136Z,333.91
2023-03-22T11:19:35.253Z,335.62
2023-03-22T11:20:35.260Z,336.30
2023-03-22T11:21:35.116Z,339.43
2023-03-22T11:22:35.163Z,341.20
2023-03-22T11:23:35.064Z,341.20
2023-03-22T11:24:35.071Z,345.88
2023-03-22T11:25:35.094Z,345.51
2023-03-22T11:26:37.455Z,345.88
2023-03-22T11:27:36.051Z,348.08
2023-03-22T11:28:35.072Z,348.45
2023-03-22T11:29:35.034Z,348.45
2023-03-22T11:30:35.010Z,349.56
2023-03-22T11:31:35.075Z,350.31
2023-03-22T11:32:35.067Z,351.43
2023-03-22T11:33:35.034Z,351.43
2023-03-22T11:34:35.011Z,352.57
2023-03-22T11:35:35.067Z,351.43
2023-03-22T11:36:34.994Z,353.33
2023-03-22T11:37:34.953Z,353.33
2023-03-22T11:38:35.042Z,352.95
2023-03-22T11:39:34.947Z,352.95
2023-03-22T11:40:34.904Z,354.47
2023-03-22T11:41:34.917Z,352.95
2023-03-22T11:42:34.872Z,356.01
2023-03-22T11:43:34.867Z,356.78
2023-03-22T11:44:34.910Z,356.01
2023-03-22T11:45:34.839Z,358.34
2023-03-22T11:46:34.876Z,362.30
2023-03-22T11:47:34.859Z,362.70
2023-03-22T11:48:35.030Z,361.50
2023-03-22T11:49:34.780Z,360.70
2023-03-22T11:50:34.821Z,363.10
2023-03-22T11:51:34.761Z,362.70
2023-03-22T11:52:34.741Z,364.31
2023-03-22T11:53:34.773Z,363.10
2023-03-22T11:54:34.832Z,363.10
2023-03-22T11:55:34.731Z,363.50
2023-03-22T11:56:34.752Z,364.31
2023-03-22T11:57:34.680Z,363.50
2023-03-22T11:58:34.741Z,365.93
2023-03-22T11:59:34.666Z,366.34
2023-03-22T12:00:34.804Z,364.71
2023-03-22T12:01:34.633Z,367.57
2023-03-22T12:02:34.804Z,365.93
2023-03-22T12:03:36.873Z,364.71
2023-03-22T12:04:34.766Z,367.16
2023-03-22T12:05:34.684Z,367.99
2023-03-22T12:06:34.622Z,368.81
2023-03-22T12:07:34.593Z,368.40
2023-03-22T12:08:34.657Z,371.32
2023-03-22T12:09:34.639Z,368.81
2023-03-22T12:10:34.568Z,370.48
2023-03-22T12:11:34.503Z,370.48
2023-03-22T12:12:34.591Z,371.74
2023-03-22T12:13:34.527Z,371.32
2023-03-22T12:14:34.555Z,370.06
2023-03-22T12:15:34.613Z,371.74
2023-03-22T12:16:34.586Z,371.74
2023-03-22T12:17:34.516Z,374.71
2023-03-22T12:18:34.455Z,376.43
2023-03-22T12:19:34.447Z,373.86
2023-03-22T12:20:34.473Z,376.43
2023-03-22T12:21:34.441Z,382.36
2023-03-22T12:22:34.445Z,381.27
2023-03-22T12:23:34.475Z,381.70
2023-03-22T12:24:34.453Z,379.96
2023-03-22T12:25:34.481Z,380.39
2023-03-22T12:26:34.525Z,377.30
2023-03-22T12:27:34.415Z,376.43
2023-03-22T12:28:34.494Z,377.30
2023-03-22T12:29:34.395Z,375.57
2023-03-22T12:30:34.338Z,380.39
2023-03-22T12:31:34.403Z,379.53
2023-03-22T12:32:34.412Z,377.73
2023-03-22T12:33:34.298Z,382.36
2023-03-22T12:34:34.297Z,381.70
2023-03-22T12:35:34.274Z,379.96
2023-03-22T12:36:34.252Z,377.30
2023-03-22T12:37:37.215Z,374.28
2023-03-22T12:38:34.358Z,376.00
2023-03-22T12:39:34.241Z,373.86
2023-03-22T12:40:34.228Z,379.31
2023-03-22T12:41:34.291Z,378.17
2023-03-22T12:42:34.988Z,375.14
2023-03-22T12:43:34.274Z,376.43
2023-03-22T12:44:34.318Z,378.17
2023-03-22T12:45:34.188Z,377.73
2023-03-22T12:46:34.311Z,375.57
2023-03-22T12:47:34.234Z,376.43
2023-03-22T12:48:34.254Z,375.57
2023-03-22T12:49:34.192Z,377.73
2023-03-22T12:50:34.110Z,377.73
2023-03-22T12:51:34.093Z,383.24
2023-03-22T12:52:44.833Z,383.24
2023-03-22T12:53:35.142Z,382.80
2023-03-22T12:54:34.063Z,381.48
2023-03-22T12:55:34.039Z,382.14
2023-03-22T12:56:34.037Z,386.12
2023-03-22T12:57:34.047Z,384.34
2023-03-22T12:58:34.057Z,388.37
2023-03-22T12:59:34.760Z,387.92
2023-03-22T13:00:34.017Z,388.82
2023-03-22T13:01:34.044Z,388.82
2023-03-22T13:02:34.071Z,389.28
2023-03-22T13:03:34.103Z,391.56
2023-03-22T13:04:33.971Z,389.73
2023-03-22T13:05:33.916Z,390.88
2023-03-22T13:06:33.964Z,390.19
2023-03-22T13:07:34.255Z,387.02
2023-03-22T13:08:33.926Z,392.25
2023-03-22T13:09:34.017Z,390.88
2023-03-22T13:10:33.885Z,390.42
2023-03-22T13:11:34.076Z,391.56
2023-03-22T13:12:33.845Z,393.88
2023-03-22T13:13:33.906Z,393.18
2023-03-22T13:14:33.834Z,392.95
2023-03-22T13:15:42.489Z,394.58
2023-03-22T13:16:34.851Z,396.45
2023-03-22T13:17:33.858Z,395.28
2023-03-22T13:18:33.862Z,396.69
2023-03-22T13:19:33.819Z,394.34